X  Tanca Dades meteorològiques de l'aviació METAR     EHKD De Kooy Airport
Temperatura
48°F Temperatura
45°F Rosada
87% Humitat



Vent
13 MPH
21 KM/H
6 M/S
11 NUS



220°
SO
Condicions actuals

Parcialment ennuvolat Parcialment ennuvolat
Pressió 1018.96 (hPa) - 30.09 (inHg)
Visibilitat 6 (milla) - 9.7 (km)
Aeroport
Codi aeroport EHKD

Ubicació: De Kooy Airport
Distància: 34 (mi)

Metar:
EHKD 281129Z AUTO 22011KT 190V250 9999 FEW008 SCT009 OVC017 09/07 Q1019 GRN NOSIG

Temps: 28-02-2024 12:29 CET